Current Weather

Gardermoen

Gardermoen, Norway (ENGM)

Report from: Sunday, November 27, 2022 9:20 AM CET
Current time: Sunday, November 27, 2022 9:49 AM CET

Nearby weather
Weather history
Weather forecast

Present weatherLight drizzle, mist
Temperature2.0°C (35.6°F)
Wind chill-1.6°C (29.2°F)
Dew point2.0°C (35.6°F)
Winds 7 kts (3.6 m/s, 8.1 mph) Southeast (140°)
Visibility2.4 mi. (3.8 km)
Clouds Ceiling: Overcast 200 ft. (61 m)
Altimeter30.21 in.Hg (1023 mB)
Relative humidity100 %
Density altitude-1,809 ft. (-551 m)
Remarks No significant changes expected in the next two hours
Flight conditions Low Instrument Meteorological Conditions
Raw dataENGM 270820Z 14007KT 3800 -DZ BR OVC002 02/02 Q1023 NOSIG
An error has occurred. This application may no longer respond until reloaded. Reload 🗙